TimeEST,TemperatureF,Dew PointF,Humidity,Sea Level PressureIn,VisibilityMPH,Wind Direction,Wind SpeedMPH,Gust SpeedMPH,PrecipitationIn,Events,Conditions,WindDirDegrees,DateUTC
12:00 AM,59.9,40.8,49,-9999,-9999.0,South,10.4,18.4,N/A,,Unknown,170,2012-11-12 05:00:00
1:00 AM,60,40,35,,,South,6.9,,,,,180,2012-11-12 06:00:00
1:00 AM,60.1,39.7,47,-9999,-9999.0,South,6.9,-,N/A,,Unknown,180,2012-11-12 06:00:00
2:00 AM,59.7,37.8,44,-9999,-9999.0,South,4.6,-,N/A,,Unknown,180,2012-11-12 07:00:00
3:00 AM,59.5,35.6,41,-9999,-9999.0,South,8.1,-,N/A,,Unknown,180,2012-11-12 08:00:00
4:00 AM,59.5,37.4,44,-9999,-9999.0,South,9.2,-,N/A,,Unknown,170,2012-11-12 09:00:00
5:00 AM,60.4,35.6,40,-9999,-9999.0,South,9.2,-,N/A,,Unknown,170,2012-11-12 10:00:00
6:00 AM,59.9,34.5,39,-9999,-9999.0,South,11.5,17.3,N/A,,Unknown,170,2012-11-12 11:00:00
7:00 AM,59,35,28,,,South,11.5,,,,,170,2012-11-12 12:00:00
7:00 AM,59.4,34.5,39,-9999,-9999.0,South,11.5,-,N/A,,Unknown,170,2012-11-12 12:00:00
8:00 AM,60.8,36.1,40,-9999,-9999.0,South,8.1,17.3,N/A,,Unknown,180,2012-11-12 13:00:00
9:00 AM,63.7,36.3,36,-9999,-9999.0,South,11.5,20.7,N/A,,Unknown,190,2012-11-12 14:00:00
10:00 AM,66.2,38.5,36,-9999,-9999.0,SSW,12.7,25.3,N/A,,Unknown,200,2012-11-12 15:00:00
11:00 AM,64.8,40.3,41,-9999,-9999.0,South,11.5,20.7,N/A,,Unknown,180,2012-11-12 16:00:00
12:00 PM,64.8,41.7,43,-9999,-9999.0,South,9.2,20.7,N/A,,Unknown,190,2012-11-12 17:00:00
1:00 PM,66,42,31,,,South,11.5,,,,,190,2012-11-12 18:00:00
1:00 PM,66.0,42.4,42,-9999,-9999.0,South,11.5,24.2,N/A,,Unknown,190,2012-11-12 18:00:00
2:00 PM,68.5,43.0,40,-9999,-9999.0,South,10.4,20.7,N/A,,Unknown,180,2012-11-12 19:00:00
3:00 PM,68.5,42.6,39,-9999,-9999.0,South,12.7,23.0,N/A,,Unknown,180,2012-11-12 20:00:00
4:00 PM,67.6,41.9,39,-9999,-9999.0,South,10.4,21.9,N/A,,Unknown,190,2012-11-12 21:00:00
5:00 PM,66.7,41.5,40,-9999,-9999.0,South,6.9,-,N/A,,Unknown,180,2012-11-12 22:00:00
6:00 PM,65.7,41.7,42,-9999,-9999.0,SSE,5.8,-,N/A,,Unknown,160,2012-11-12 23:00:00
7:00 PM,64,43,34,,,SSE,12.7,,,,,160,2012-11-13 00:00:00
7:00 PM,63.9,42.6,46,-9999,-9999.0,SSE,12.7,24.2,N/A,,Unknown,160,2012-11-13 00:00:00
8:00 PM,61.2,44.1,53,-9999,-9999.0,South,11.5,21.9,N/A,,Unknown,170,2012-11-13 01:00:00
9:00 PM,59.5,45.1,59,-9999,-9999.0,SSE,9.2,-,N/A,,Unknown,150,2012-11-13 02:00:00
10:00 PM,61.9,46.8,58,-9999,-9999.0,South,10.4,24.2,N/A,,Unknown,190,2012-11-13 03:00:00
11:00 PM,63.0,48.6,59,-9999,-9999.0,South,15.0,27.6,N/A,,Unknown,190,2012-11-13 04:00:00